sensor_id;sensor_type;location;lat;lon;timestamp;P1;durP1;ratioP1;P2;durP2;ratioP2
9716;SDS011;4897;43.570;27.832;2022-10-31T00:02:02;43.17;;;21.30;;
9716;SDS011;4897;43.570;27.832;2022-10-31T00:04:29;27.17;;;14.77;;
9716;SDS011;4897;43.570;27.832;2022-10-31T00:10:18;34.50;;;18.13;;
9716;SDS011;4897;43.570;27.832;2022-10-31T00:12:46;32.83;;;17.13;;
9716;SDS011;4897;43.570;27.832;2022-10-31T00:15:13;32.42;;;18.15;;
9716;SDS011;4897;43.570;27.832;2022-10-31T00:17:40;34.88;;;15.13;;
9716;SDS011;4897;43.570;27.832;2022-10-31T00:20:07;33.72;;;17.33;;
9716;SDS011;4897;43.570;27.832;2022-10-31T00:22:36;35.75;;;15.00;;
9716;SDS011;4897;43.570;27.832;2022-10-31T00:25:04;21.30;;;12.13;;
9716;SDS011;4897;43.570;27.832;2022-10-31T00:27:31;22.40;;;11.98;;
9716;SDS011;4897;43.570;27.832;2022-10-31T00:29:59;25.80;;;11.93;;
9716;SDS011;4897;43.570;27.832;2022-10-31T00:32:28;24.30;;;12.00;;
9716;SDS011;4897;43.570;27.832;2022-10-31T00:34:55;21.70;;;10.48;;
9716;SDS011;4897;43.570;27.832;2022-10-31T00:37:22;24.58;;;9.55;;
9716;SDS011;4897;43.570;27.832;2022-10-31T00:39:49;24.23;;;10.82;;
9716;SDS011;4897;43.570;27.832;2022-10-31T00:42:18;17.70;;;10.63;;
9716;SDS011;4897;43.570;27.832;2022-10-31T00:44:45;17.52;;;10.05;;
9716;SDS011;4897;43.570;27.832;2022-10-31T00:47:13;17.00;;;10.20;;
9716;SDS011;4897;43.570;27.832;2022-10-31T00:49:40;20.10;;;11.07;;
9716;SDS011;4897;43.570;27.832;2022-10-31T00:52:07;18.75;;;11.00;;
9716;SDS011;4897;43.570;27.832;2022-10-31T00:54:34;24.20;;;11.75;;
9716;SDS011;4897;43.570;27.832;2022-10-31T00:57:00;31.75;;;14.40;;
9716;SDS011;4897;43.570;27.832;2022-10-31T00:59:27;34.25;;;17.05;;
9716;SDS011;4897;43.570;27.832;2022-10-31T01:01:54;31.38;;;17.33;;
9716;SDS011;4897;43.570;27.832;2022-10-31T01:04:22;41.10;;;18.95;;
9716;SDS011;4897;43.570;27.832;2022-10-31T01:06:49;39.45;;;18.67;;
9716;SDS011;4897;43.570;27.832;2022-10-31T01:09:16;37.05;;;19.52;;
9716;SDS011;4897;43.570;27.832;2022-10-31T01:11:43;38.53;;;20.67;;
9716;SDS011;4897;43.570;27.832;2022-10-31T01:14:10;42.92;;;20.13;;
9716;SDS011;4897;43.570;27.832;2022-10-31T01:16:37;39.17;;;20.25;;
9716;SDS011;4897;43.570;27.832;2022-10-31T01:19:04;40.70;;;20.27;;
9716;SDS011;4897;43.570;27.832;2022-10-31T01:21:32;42.50;;;20.60;;
9716;SDS011;4897;43.570;27.832;2022-10-31T01:23:59;32.95;;;19.02;;
9716;SDS011;4897;43.570;27.832;2022-10-31T01:26:27;30.75;;;17.08;;
9716;SDS011;4897;43.570;27.832;2022-10-31T01:28:57;23.60;;;15.15;;
9716;SDS011;4897;43.570;27.832;2022-10-31T01:31:25;30.75;;;14.95;;
9716;SDS011;4897;43.570;27.832;2022-10-31T01:33:53;25.27;;;13.85;;
9716;SDS011;4897;43.570;27.832;2022-10-31T01:36:21;29.05;;;12.38;;
9716;SDS011;4897;43.570;27.832;2022-10-31T01:38:50;22.35;;;10.32;;
9716;SDS011;4897;43.570;27.832;2022-10-31T01:41:20;19.17;;;10.45;;
9716;SDS011;4897;43.570;27.832;2022-10-31T01:43:49;24.63;;;11.30;;
9716;SDS011;4897;43.570;27.832;2022-10-31T01:46:19;23.38;;;10.82;;
9716;SDS011;4897;43.570;27.832;2022-10-31T01:48:49;20.75;;;10.05;;
9716;SDS011;4897;43.570;27.832;2022-10-31T01:51:17;16.38;;;9.68;;
9716;SDS011;4897;43.570;27.832;2022-10-31T01:53:51;16.67;;;9.85;;
9716;SDS011;4897;43.570;27.832;2022-10-31T01:56:21;21.83;;;9.90;;
9716;SDS011;4897;43.570;27.832;2022-10-31T01:58:49;14.52;;;9.30;;
9716;SDS011;4897;43.570;27.832;2022-10-31T02:01:16;17.80;;;9.82;;
9716;SDS011;4897;43.570;27.832;2022-10-31T02:03:44;23.83;;;10.68;;
9716;SDS011;4897;43.570;27.832;2022-10-31T02:06:13;18.17;;;10.32;;
9716;SDS011;4897;43.570;27.832;2022-10-31T02:08:48;22.20;;;10.25;;
9716;SDS011;4897;43.570;27.832;2022-10-31T02:11:16;16.58;;;9.77;;
9716;SDS011;4897;43.570;27.832;2022-10-31T02:13:43;20.95;;;9.98;;
9716;SDS011;4897;43.570;27.832;2022-10-31T02:16:10;18.65;;;9.40;;
9716;SDS011;4897;43.570;27.832;2022-10-31T02:18:37;18.17;;;9.55;;
9716;SDS011;4897;43.570;27.832;2022-10-31T02:21:07;22.23;;;9.55;;
9716;SDS011;4897;43.570;27.832;2022-10-31T02:23:58;16.67;;;8.65;;
9716;SDS011;4897;43.570;27.832;2022-10-31T02:26:51;16.25;;;9.15;;
9716;SDS011;4897;43.570;27.832;2022-10-31T02:29:32;16.65;;;8.90;;
9716;SDS011;4897;43.570;27.832;2022-10-31T02:32:21;15.73;;;9.18;;
9716;SDS011;4897;43.570;27.832;2022-10-31T02:34:57;20.25;;;9.20;;
9716;SDS011;4897;43.570;27.832;2022-10-31T02:37:29;18.02;;;8.93;;
9716;SDS011;4897;43.570;27.832;2022-10-31T02:40:04;19.50;;;9.30;;
9716;SDS011;4897;43.570;27.832;2022-10-31T02:42:39;14.65;;;8.77;;
9716;SDS011;4897;43.570;27.832;2022-10-31T02:45:14;19.75;;;10.70;;
9716;SDS011;4897;43.570;27.832;2022-10-31T02:47:52;19.05;;;9.30;;
9716;SDS011;4897;43.570;27.832;2022-10-31T02:50:22;17.45;;;9.60;;
9716;SDS011;4897;43.570;27.832;2022-10-31T02:52:53;22.15;;;10.35;;
9716;SDS011;4897;43.570;27.832;2022-10-31T02:58:15;20.00;;;11.02;;
9716;SDS011;4897;43.570;27.832;2022-10-31T03:00:47;25.33;;;13.65;;
9716;SDS011;4897;43.570;27.832;2022-10-31T03:03:27;30.92;;;15.15;;
9716;SDS011;4897;43.570;27.832;2022-10-31T03:06:00;34.03;;;16.23;;
9716;SDS011;4897;43.570;27.832;2022-10-31T03:08:35;27.42;;;15.13;;
9716;SDS011;4897;43.570;27.832;2022-10-31T03:11:08;28.42;;;14.95;;
9716;SDS011;4897;43.570;27.832;2022-10-31T03:13:38;34.25;;;16.55;;
9716;SDS011;4897;43.570;27.832;2022-10-31T03:16:08;28.70;;;15.80;;
9716;SDS011;4897;43.570;27.832;2022-10-31T03:18:40;28.70;;;16.30;;
9716;SDS011;4897;43.570;27.832;2022-10-31T03:21:15;32.53;;;16.08;;
9716;SDS011;4897;43.570;27.832;2022-10-31T03:23:47;37.17;;;16.88;;
9716;SDS011;4897;43.570;27.832;2022-10-31T03:26:16;26.20;;;15.77;;
9716;SDS011;4897;43.570;27.832;2022-10-31T03:28:48;29.27;;;16.02;;
9716;SDS011;4897;43.570;27.832;2022-10-31T03:31:18;31.10;;;15.25;;
9716;SDS011;4897;43.570;27.832;2022-10-31T03:33:50;28.10;;;15.35;;
9716;SDS011;4897;43.570;27.832;2022-10-31T03:36:19;35.58;;;15.52;;
9716;SDS011;4897;43.570;27.832;2022-10-31T03:38:47;41.83;;;15.85;;
9716;SDS011;4897;43.570;27.832;2022-10-31T03:41:16;31.77;;;15.00;;
9716;SDS011;4897;43.570;27.832;2022-10-31T03:43:47;31.30;;;13.95;;
9716;SDS011;4897;43.570;27.832;2022-10-31T03:46:20;32.90;;;14.43;;
9716;SDS011;4897;43.570;27.832;2022-10-31T03:48:47;31.90;;;16.08;;
9716;SDS011;4897;43.570;27.832;2022-10-31T03:51:17;33.03;;;15.60;;
9716;SDS011;4897;43.570;27.832;2022-10-31T03:53:51;34.22;;;15.13;;
9716;SDS011;4897;43.570;27.832;2022-10-31T03:56:22;41.03;;;15.52;;
9716;SDS011;4897;43.570;27.832;2022-10-31T03:58:57;39.30;;;15.18;;
9716;SDS011;4897;43.570;27.832;2022-10-31T04:01:28;25.92;;;14.65;;
9716;SDS011;4897;43.570;27.832;2022-10-31T04:03:57;21.75;;;13.68;;
9716;SDS011;4897;43.570;27.832;2022-10-31T04:06:26;25.40;;;12.45;;
9716;SDS011;4897;43.570;27.832;2022-10-31T04:08:55;30.10;;;13.23;;
9716;SDS011;4897;43.570;27.832;2022-10-31T04:11:26;23.85;;;12.30;;
9716;SDS011;4897;43.570;27.832;2022-10-31T04:13:56;20.98;;;11.85;;
9716;SDS011;4897;43.570;27.832;2022-10-31T04:16:25;24.05;;;12.70;;
9716;SDS011;4897;43.570;27.832;2022-10-31T04:18:53;23.60;;;12.73;;
9716;SDS011;4897;43.570;27.832;2022-10-31T04:21:25;19.27;;;10.65;;
9716;SDS011;4897;43.570;27.832;2022-10-31T04:23:55;21.73;;;10.73;;
9716;SDS011;4897;43.570;27.832;2022-10-31T04:26:22;15.07;;;9.82;;
9716;SDS011;4897;43.570;27.832;2022-10-31T04:28:49;19.85;;;10.40;;
9716;SDS011;4897;43.570;27.832;2022-10-31T04:31:16;16.27;;;9.40;;
9716;SDS011;4897;43.570;27.832;2022-10-31T04:33:43;17.08;;;9.55;;
9716;SDS011;4897;43.570;27.832;2022-10-31T04:36:10;21.35;;;10.05;;
9716;SDS011;4897;43.570;27.832;2022-10-31T04:38:40;31.38;;;10.82;;
9716;SDS011;4897;43.570;27.832;2022-10-31T04:41:07;23.48;;;10.80;;
9716;SDS011;4897;43.570;27.832;2022-10-31T04:43:33;21.70;;;10.73;;
9716;SDS011;4897;43.570;27.832;2022-10-31T04:46:00;19.70;;;10.93;;
9716;SDS011;4897;43.570;27.832;2022-10-31T04:48:27;15.07;;;8.32;;
9716;SDS011;4897;43.570;27.832;2022-10-31T04:50:58;20.20;;;9.50;;
9716;SDS011;4897;43.570;27.832;2022-10-31T04:53:25;20.98;;;10.70;;
9716;SDS011;4897;43.570;27.832;2022-10-31T04:55:53;26.45;;;11.95;;
9716;SDS011;4897;43.570;27.832;2022-10-31T04:58:20;40.63;;;23.10;;
9716;SDS011;4897;43.570;27.832;2022-10-31T05:00:47;22.38;;;12.68;;
9716;SDS011;4897;43.570;27.832;2022-10-31T05:03:17;17.55;;;11.13;;
9716;SDS011;4897;43.570;27.832;2022-10-31T05:05:44;22.38;;;10.60;;
9716;SDS011;4897;43.570;27.832;2022-10-31T05:08:10;29.13;;;15.10;;
9716;SDS011;4897;43.570;27.832;2022-10-31T05:10:37;31.65;;;13.23;;
9716;SDS011;4897;43.570;27.832;2022-10-31T05:13:07;31.60;;;11.68;;
9716;SDS011;4897;43.570;27.832;2022-10-31T05:15:34;25.92;;;12.23;;
9716;SDS011;4897;43.570;27.832;2022-10-31T05:18:01;27.50;;;12.38;;
9716;SDS011;4897;43.570;27.832;2022-10-31T05:20:29;34.35;;;11.90;;
9716;SDS011;4897;43.570;27.832;2022-10-31T05:22:57;22.35;;;11.48;;
9716;SDS011;4897;43.570;27.832;2022-10-31T05:25:24;21.05;;;12.18;;
9716;SDS011;4897;43.570;27.832;2022-10-31T05:27:53;26.77;;;12.65;;
9716;SDS011;4897;43.570;27.832;2022-10-31T05:30:24;28.65;;;12.45;;
9716;SDS011;4897;43.570;27.832;2022-10-31T05:32:51;32.75;;;12.93;;
9716;SDS011;4897;43.570;27.832;2022-10-31T05:35:19;19.90;;;11.07;;
9716;SDS011;4897;43.570;27.832;2022-10-31T05:37:47;21.90;;;11.35;;
9716;SDS011;4897;43.570;27.832;2022-10-31T05:40:14;32.95;;;16.13;;
9716;SDS011;4897;43.570;27.832;2022-10-31T05:42:43;41.83;;;17.48;;
9716;SDS011;4897;43.570;27.832;2022-10-31T05:45:11;52.45;;;18.33;;
9716;SDS011;4897;43.570;27.832;2022-10-31T05:47:41;39.78;;;18.92;;
9716;SDS011;4897;43.570;27.832;2022-10-31T05:50:09;56.78;;;18.88;;
9716;SDS011;4897;43.570;27.832;2022-10-31T05:52:36;43.90;;;19.45;;
9716;SDS011;4897;43.570;27.832;2022-10-31T05:55:03;47.33;;;20.65;;
9716;SDS011;4897;43.570;27.832;2022-10-31T05:57:31;42.28;;;19.63;;
9716;SDS011;4897;43.570;27.832;2022-10-31T05:59:58;43.88;;;21.73;;
9716;SDS011;4897;43.570;27.832;2022-10-31T06:02:25;45.65;;;20.95;;
9716;SDS011;4897;43.570;27.832;2022-10-31T06:04:58;39.03;;;18.60;;
9716;SDS011;4897;43.570;27.832;2022-10-31T06:07:25;38.75;;;18.27;;
9716;SDS011;4897;43.570;27.832;2022-10-31T06:09:52;32.60;;;15.43;;
9716;SDS011;4897;43.570;27.832;2022-10-31T06:12:19;39.55;;;17.85;;
9716;SDS011;4897;43.570;27.832;2022-10-31T06:14:46;34.90;;;14.70;;
9716;SDS011;4897;43.570;27.832;2022-10-31T06:17:12;26.52;;;14.20;;
9716;SDS011;4897;43.570;27.832;2022-10-31T06:19:39;28.00;;;15.25;;
9716;SDS011;4897;43.570;27.832;2022-10-31T06:22:07;41.50;;;14.43;;
9716;SDS011;4897;43.570;27.832;2022-10-31T06:24:36;26.90;;;14.43;;
9716;SDS011;4897;43.570;27.832;2022-10-31T06:27:03;39.95;;;15.27;;
9716;SDS011;4897;43.570;27.832;2022-10-31T06:29:30;27.65;;;13.60;;
9716;SDS011;4897;43.570;27.832;2022-10-31T06:31:57;27.02;;;13.45;;
9716;SDS011;4897;43.570;27.832;2022-10-31T06:34:25;58.10;;;34.05;;
9716;SDS011;4897;43.570;27.832;2022-10-31T06:36:52;24.27;;;14.63;;
9716;SDS011;4897;43.570;27.832;2022-10-31T06:39:23;32.88;;;17.83;;
9716;SDS011;4897;43.570;27.832;2022-10-31T06:41:52;23.30;;;12.32;;
9716;SDS011;4897;43.570;27.832;2022-10-31T06:44:19;24.00;;;13.52;;
9716;SDS011;4897;43.570;27.832;2022-10-31T06:46:46;26.95;;;12.90;;
9716;SDS011;4897;43.570;27.832;2022-10-31T06:49:13;22.48;;;12.93;;
9716;SDS011;4897;43.570;27.832;2022-10-31T06:51:40;32.90;;;12.00;;
9716;SDS011;4897;43.570;27.832;2022-10-31T06:54:07;26.20;;;14.18;;
9716;SDS011;4897;43.570;27.832;2022-10-31T06:56:36;23.25;;;13.63;;
9716;SDS011;4897;43.570;27.832;2022-10-31T06:59:03;37.63;;;13.32;;
9716;SDS011;4897;43.570;27.832;2022-10-31T07:01:30;30.58;;;13.23;;
9716;SDS011;4897;43.570;27.832;2022-10-31T07:03:57;27.00;;;14.00;;
9716;SDS011;4897;43.570;27.832;2022-10-31T07:06:24;28.23;;;14.90;;
9716;SDS011;4897;43.570;27.832;2022-10-31T07:08:51;37.75;;;14.65;;
9716;SDS011;4897;43.570;27.832;2022-10-31T07:11:17;31.10;;;15.10;;
9716;SDS011;4897;43.570;27.832;2022-10-31T07:13:46;31.83;;;14.20;;
9716;SDS011;4897;43.570;27.832;2022-10-31T07:16:13;29.08;;;12.88;;
9716;SDS011;4897;43.570;27.832;2022-10-31T07:18:39;32.08;;;12.13;;
9716;SDS011;4897;43.570;27.832;2022-10-31T07:21:06;21.88;;;13.18;;
9716;SDS011;4897;43.570;27.832;2022-10-31T07:23:33;21.33;;;12.95;;
9716;SDS011;4897;43.570;27.832;2022-10-31T07:26:00;24.90;;;12.48;;
9716;SDS011;4897;43.570;27.832;2022-10-31T07:28:27;20.75;;;12.85;;
9716;SDS011;4897;43.570;27.832;2022-10-31T07:30:56;15.48;;;7.57;;
9716;SDS011;4897;43.570;27.832;2022-10-31T07:33:24;22.75;;;9.85;;
9716;SDS011;4897;43.570;27.832;2022-10-31T07:35:52;22.55;;;8.48;;
9716;SDS011;4897;43.570;27.832;2022-10-31T07:38:19;15.50;;;8.05;;
9716;SDS011;4897;43.570;27.832;2022-10-31T07:40:49;15.38;;;7.30;;
9716;SDS011;4897;43.570;27.832;2022-10-31T07:43:19;16.08;;;7.65;;
9716;SDS011;4897;43.570;27.832;2022-10-31T07:45:50;17.85;;;7.00;;
9716;SDS011;4897;43.570;27.832;2022-10-31T07:48:19;13.88;;;7.72;;
9716;SDS011;4897;43.570;27.832;2022-10-31T07:50:46;14.15;;;7.43;;
9716;SDS011;4897;43.570;27.832;2022-10-31T07:53:14;8.00;;;5.60;;
9716;SDS011;4897;43.570;27.832;2022-10-31T07:55:41;8.82;;;6.07;;
9716;SDS011;4897;43.570;27.832;2022-10-31T07:58:09;7.68;;;4.50;;
9716;SDS011;4897;43.570;27.832;2022-10-31T08:00:41;10.63;;;5.72;;
9716;SDS011;4897;43.570;27.832;2022-10-31T08:03:09;9.40;;;4.95;;
9716;SDS011;4897;43.570;27.832;2022-10-31T08:05:39;10.63;;;3.80;;
9716;SDS011;4897;43.570;27.832;2022-10-31T08:08:06;6.55;;;5.13;;
9716;SDS011;4897;43.570;27.832;2022-10-31T08:10:33;13.27;;;6.30;;
9716;SDS011;4897;43.570;27.832;2022-10-31T08:13:02;8.98;;;6.60;;
9716;SDS011;4897;43.570;27.832;2022-10-31T08:15:32;13.75;;;4.90;;
9716;SDS011;4897;43.570;27.832;2022-10-31T08:18:02;9.25;;;4.32;;
9716;SDS011;4897;43.570;27.832;2022-10-31T08:20:29;16.30;;;5.20;;
9716;SDS011;4897;43.570;27.832;2022-10-31T08:22:58;7.13;;;4.20;;
9716;SDS011;4897;43.570;27.832;2022-10-31T08:25:26;12.13;;;4.75;;
9716;SDS011;4897;43.570;27.832;2022-10-31T08:27:54;9.52;;;4.78;;
9716;SDS011;4897;43.570;27.832;2022-10-31T08:30:23;7.45;;;3.45;;
9716;SDS011;4897;43.570;27.832;2022-10-31T08:32:56;5.93;;;3.97;;
9716;SDS011;4897;43.570;27.832;2022-10-31T08:35:25;5.60;;;3.83;;
9716;SDS011;4897;43.570;27.832;2022-10-31T08:37:52;10.43;;;3.90;;
9716;SDS011;4897;43.570;27.832;2022-10-31T08:40:22;10.18;;;4.28;;
9716;SDS011;4897;43.570;27.832;2022-10-31T08:42:55;10.73;;;4.72;;
9716;SDS011;4897;43.570;27.832;2022-10-31T08:45:23;11.77;;;4.97;;
9716;SDS011;4897;43.570;27.832;2022-10-31T08:47:50;8.05;;;4.60;;
9716;SDS011;4897;43.570;27.832;2022-10-31T08:50:17;9.10;;;4.50;;
9716;SDS011;4897;43.570;27.832;2022-10-31T08:52:44;9.30;;;3.83;;
9716;SDS011;4897;43.570;27.832;2022-10-31T08:55:13;5.90;;;4.05;;
9716;SDS011;4897;43.570;27.832;2022-10-31T08:57:44;8.98;;;4.32;;
9716;SDS011;4897;43.570;27.832;2022-10-31T09:00:11;8.82;;;4.72;;
9716;SDS011;4897;43.570;27.832;2022-10-31T09:02:41;6.55;;;4.22;;
9716;SDS011;4897;43.570;27.832;2022-10-31T09:05:08;6.80;;;4.50;;
9716;SDS011;4897;43.570;27.832;2022-10-31T09:07:35;6.05;;;3.83;;
9716;SDS011;4897;43.570;27.832;2022-10-31T09:10:05;4.03;;;3.33;;
9716;SDS011;4897;43.570;27.832;2022-10-31T09:12:32;15.57;;;4.72;;
9716;SDS011;4897;43.570;27.832;2022-10-31T09:15:00;13.80;;;10.88;;
9716;SDS011;4897;43.570;27.832;2022-10-31T09:17:31;6.18;;;4.60;;
9716;SDS011;4897;43.570;27.832;2022-10-31T09:19:58;8.88;;;5.25;;
9716;SDS011;4897;43.570;27.832;2022-10-31T09:22:25;6.47;;;4.15;;
9716;SDS011;4897;43.570;27.832;2022-10-31T09:24:52;11.35;;;4.80;;
9716;SDS011;4897;43.570;27.832;2022-10-31T09:27:19;4.43;;;3.35;;
9716;SDS011;4897;43.570;27.832;2022-10-31T09:29:45;5.13;;;3.42;;
9716;SDS011;4897;43.570;27.832;2022-10-31T09:32:14;7.07;;;3.47;;
9716;SDS011;4897;43.570;27.832;2022-10-31T09:34:40;5.20;;;3.45;;
9716;SDS011;4897;43.570;27.832;2022-10-31T09:37:07;5.25;;;3.50;;
9716;SDS011;4897;43.570;27.832;2022-10-31T09:39:37;12.38;;;6.32;;
9716;SDS011;4897;43.570;27.832;2022-10-31T09:42:13;10.20;;;4.35;;
9716;SDS011;4897;43.570;27.832;2022-10-31T09:45:03;8.48;;;4.70;;
9716;SDS011;4897;43.570;27.832;2022-10-31T09:47:43;11.57;;;3.83;;
9716;SDS011;4897;43.570;27.832;2022-10-31T09:50:19;7.43;;;3.47;;
9716;SDS011;4897;43.570;27.832;2022-10-31T09:52:51;7.82;;;3.40;;
9716;SDS011;4897;43.570;27.832;2022-10-31T09:55:26;6.72;;;3.10;;
9716;SDS011;4897;43.570;27.832;2022-10-31T09:58:01;4.10;;;3.17;;
9716;SDS011;4897;43.570;27.832;2022-10-31T10:00:29;9.27;;;3.70;;
9716;SDS011;4897;43.570;27.832;2022-10-31T10:02:59;7.47;;;3.42;;
9716;SDS011;4897;43.570;27.832;2022-10-31T10:05:37;9.43;;;3.50;;
9716;SDS011;4897;43.570;27.832;2022-10-31T10:08:13;9.57;;;3.45;;
9716;SDS011;4897;43.570;27.832;2022-10-31T10:10:47;7.80;;;3.30;;
9716;SDS011;4897;43.570;27.832;2022-10-31T10:13:32;7.88;;;3.08;;
9716;SDS011;4897;43.570;27.832;2022-10-31T10:16:13;7.60;;;3.65;;
9716;SDS011;4897;43.570;27.832;2022-10-31T10:18:55;13.05;;;3.53;;
9716;SDS011;4897;43.570;27.832;2022-10-31T10:21:32;5.93;;;2.78;;
9716;SDS011;4897;43.570;27.832;2022-10-31T10:24:15;6.28;;;2.80;;
9716;SDS011;4897;43.570;27.832;2022-10-31T10:26:54;7.70;;;2.70;;
9716;SDS011;4897;43.570;27.832;2022-10-31T10:29:32;3.53;;;2.80;;
9716;SDS011;4897;43.570;27.832;2022-10-31T10:32:06;4.50;;;2.70;;
9716;SDS011;4897;43.570;27.832;2022-10-31T10:34:41;8.13;;;3.17;;
9716;SDS011;4897;43.570;27.832;2022-10-31T10:37:14;3.65;;;2.58;;
9716;SDS011;4897;43.570;27.832;2022-10-31T10:39:52;7.30;;;2.80;;
9716;SDS011;4897;43.570;27.832;2022-10-31T10:42:33;4.97;;;2.88;;
9716;SDS011;4897;43.570;27.832;2022-10-31T10:45:19;4.40;;;2.63;;
9716;SDS011;4897;43.570;27.832;2022-10-31T10:48:05;15.82;;;3.50;;
9716;SDS011;4897;43.570;27.832;2022-10-31T10:50:48;5.13;;;2.70;;
9716;SDS011;4897;43.570;27.832;2022-10-31T10:53:29;4.18;;;2.65;;
9716;SDS011;4897;43.570;27.832;2022-10-31T10:56:25;9.13;;;2.95;;
9716;SDS011;4897;43.570;27.832;2022-10-31T10:59:02;4.95;;;2.60;;
9716;SDS011;4897;43.570;27.832;2022-10-31T11:01:30;3.65;;;2.70;;
9716;SDS011;4897;43.570;27.832;2022-10-31T11:03:56;4.90;;;2.78;;
9716;SDS011;4897;43.570;27.832;2022-10-31T11:06:27;3.47;;;2.40;;
9716;SDS011;4897;43.570;27.832;2022-10-31T11:08:54;8.93;;;2.70;;
9716;SDS011;4897;43.570;27.832;2022-10-31T11:11:25;4.97;;;2.25;;
9716;SDS011;4897;43.570;27.832;2022-10-31T11:13:56;5.45;;;2.80;;
9716;SDS011;4897;43.570;27.832;2022-10-31T11:16:31;3.80;;;2.80;;
9716;SDS011;4897;43.570;27.832;2022-10-31T11:19:08;4.70;;;2.42;;
9716;SDS011;4897;43.570;27.832;2022-10-31T11:21:43;5.10;;;2.40;;
9716;SDS011;4897;43.570;27.832;2022-10-31T11:24:14;5.15;;;2.42;;
9716;SDS011;4897;43.570;27.832;2022-10-31T11:26:44;4.35;;;2.72;;
9716;SDS011;4897;43.570;27.832;2022-10-31T11:29:14;7.28;;;3.00;;
9716;SDS011;4897;43.570;27.832;2022-10-31T11:31:44;4.93;;;2.55;;
9716;SDS011;4897;43.570;27.832;2022-10-31T11:34:15;6.15;;;2.70;;
9716;SDS011;4897;43.570;27.832;2022-10-31T11:36:50;4.00;;;2.10;;
9716;SDS011;4897;43.570;27.832;2022-10-31T11:39:17;4.13;;;3.22;;
9716;SDS011;4897;43.570;27.832;2022-10-31T11:41:47;4.10;;;2.80;;
9716;SDS011;4897;43.570;27.832;2022-10-31T11:44:16;4.55;;;2.47;;
9716;SDS011;4897;43.570;27.832;2022-10-31T11:46:46;5.47;;;2.88;;
9716;SDS011;4897;43.570;27.832;2022-10-31T11:49:15;5.72;;;2.42;;
9716;SDS011;4897;43.570;27.832;2022-10-31T11:52:00;5.93;;;3.60;;
9716;SDS011;4897;43.570;27.832;2022-10-31T11:54:45;3.53;;;2.47;;
9716;SDS011;4897;43.570;27.832;2022-10-31T11:57:25;5.05;;;2.65;;
9716;SDS011;4897;43.570;27.832;2022-10-31T11:59:55;6.57;;;2.60;;
9716;SDS011;4897;43.570;27.832;2022-10-31T12:02:23;6.38;;;3.85;;
9716;SDS011;4897;43.570;27.832;2022-10-31T12:04:52;3.85;;;2.90;;
9716;SDS011;4897;43.570;27.832;2022-10-31T12:07:29;6.10;;;2.65;;
9716;SDS011;4897;43.570;27.832;2022-10-31T12:09:56;3.55;;;2.80;;
9716;SDS011;4897;43.570;27.832;2022-10-31T12:12:27;6.03;;;2.60;;
9716;SDS011;4897;43.570;27.832;2022-10-31T12:15:13;4.07;;;3.00;;
9716;SDS011;4897;43.570;27.832;2022-10-31T12:17:52;4.20;;;2.60;;
9716;SDS011;4897;43.570;27.832;2022-10-31T12:20:26;5.43;;;3.15;;
9716;SDS011;4897;43.570;27.832;2022-10-31T12:23:06;9.68;;;3.00;;
9716;SDS011;4897;43.570;27.832;2022-10-31T12:25:43;4.95;;;2.40;;
9716;SDS011;4897;43.570;27.832;2022-10-31T12:31:08;5.57;;;2.88;;
9716;SDS011;4897;43.570;27.832;2022-10-31T12:33:51;6.25;;;2.60;;
9716;SDS011;4897;43.570;27.832;2022-10-31T12:36:29;5.63;;;2.53;;
9716;SDS011;4897;43.570;27.832;2022-10-31T12:39:11;3.30;;;2.17;;
9716;SDS011;4897;43.570;27.832;2022-10-31T12:41:51;5.15;;;2.33;;
9716;SDS011;4897;43.570;27.832;2022-10-31T12:44:29;5.65;;;2.58;;
9716;SDS011;4897;43.570;27.832;2022-10-31T12:47:22;4.45;;;2.70;;
9716;SDS011;4897;43.570;27.832;2022-10-31T12:50:05;4.25;;;2.95;;
9716;SDS011;4897;43.570;27.832;2022-10-31T12:52:47;5.05;;;3.10;;
9716;SDS011;4897;43.570;27.832;2022-10-31T12:55:31;9.65;;;4.75;;
9716;SDS011;4897;43.570;27.832;2022-10-31T12:58:07;8.90;;;3.85;;
9716;SDS011;4897;43.570;27.832;2022-10-31T13:00:41;8.73;;;3.28;;
9716;SDS011;4897;43.570;27.832;2022-10-31T13:03:16;7.18;;;3.00;;
9716;SDS011;4897;43.570;27.832;2022-10-31T13:05:50;9.32;;;3.30;;
9716;SDS011;4897;43.570;27.832;2022-10-31T13:08:26;6.57;;;3.25;;
9716;SDS011;4897;43.570;27.832;2022-10-31T13:11:05;4.78;;;3.17;;
9716;SDS011;4897;43.570;27.832;2022-10-31T13:13:38;7.53;;;6.22;;
9716;SDS011;4897;43.570;27.832;2022-10-31T13:16:10;8.02;;;3.65;;
9716;SDS011;4897;43.570;27.832;2022-10-31T13:18:42;5.05;;;3.20;;
9716;SDS011;4897;43.570;27.832;2022-10-31T13:21:15;8.00;;;3.05;;
9716;SDS011;4897;43.570;27.832;2022-10-31T13:23:47;5.07;;;3.17;;
9716;SDS011;4897;43.570;27.832;2022-10-31T13:26:18;8.65;;;3.00;;
9716;SDS011;4897;43.570;27.832;2022-10-31T13:28:52;5.75;;;3.10;;
9716;SDS011;4897;43.570;27.832;2022-10-31T13:31:26;8.52;;;3.30;;
9716;SDS011;4897;43.570;27.832;2022-10-31T13:33:54;6.18;;;3.28;;
9716;SDS011;4897;43.570;27.832;2022-10-31T13:36:26;11.30;;;3.03;;
9716;SDS011;4897;43.570;27.832;2022-10-31T13:39:01;13.82;;;4.05;;
9716;SDS011;4897;43.570;27.832;2022-10-31T13:41:48;7.72;;;2.80;;
9716;SDS011;4897;43.570;27.832;2022-10-31T13:44:21;6.78;;;3.25;;
9716;SDS011;4897;43.570;27.832;2022-10-31T13:46:50;14.45;;;3.47;;
9716;SDS011;4897;43.570;27.832;2022-10-31T13:49:25;11.25;;;3.38;;
9716;SDS011;4897;43.570;27.832;2022-10-31T13:52:05;5.63;;;3.13;;
9716;SDS011;4897;43.570;27.832;2022-10-31T13:54:43;4.03;;;2.70;;
9716;SDS011;4897;43.570;27.832;2022-10-31T13:57:17;10.60;;;3.00;;
9716;SDS011;4897;43.570;27.832;2022-10-31T13:59:49;6.85;;;3.47;;
9716;SDS011;4897;43.570;27.832;2022-10-31T14:02:20;7.50;;;3.17;;
9716;SDS011;4897;43.570;27.832;2022-10-31T14:04:52;6.65;;;3.00;;
9716;SDS011;4897;43.570;27.832;2022-10-31T14:07:22;6.57;;;3.58;;
9716;SDS011;4897;43.570;27.832;2022-10-31T14:09:53;5.13;;;3.80;;
9716;SDS011;4897;43.570;27.832;2022-10-31T14:12:25;5.47;;;3.05;;
9716;SDS011;4897;43.570;27.832;2022-10-31T14:14:57;5.82;;;3.22;;
9716;SDS011;4897;43.570;27.832;2022-10-31T14:17:29;7.57;;;4.15;;
9716;SDS011;4897;43.570;27.832;2022-10-31T14:22:50;8.02;;;4.40;;
9716;SDS011;4897;43.570;27.832;2022-10-31T14:25:30;38.08;;;31.15;;
9716;SDS011;4897;43.570;27.832;2022-10-31T14:28:00;11.63;;;5.22;;
9716;SDS011;4897;43.570;27.832;2022-10-31T14:30:29;17.05;;;4.82;;
9716;SDS011;4897;43.570;27.832;2022-10-31T14:32:57;6.10;;;4.00;;
9716;SDS011;4897;43.570;27.832;2022-10-31T14:35:29;11.18;;;4.53;;
9716;SDS011;4897;43.570;27.832;2022-10-31T14:38:13;10.88;;;3.45;;
9716;SDS011;4897;43.570;27.832;2022-10-31T14:40:52;8.80;;;4.22;;
9716;SDS011;4897;43.570;27.832;2022-10-31T14:43:41;7.13;;;5.03;;
9716;SDS011;4897;43.570;27.832;2022-10-31T14:46:25;8.13;;;3.75;;
9716;SDS011;4897;43.570;27.832;2022-10-31T14:49:06;6.80;;;3.70;;
9716;SDS011;4897;43.570;27.832;2022-10-31T14:51:43;8.18;;;4.00;;
9716;SDS011;4897;43.570;27.832;2022-10-31T14:54:14;8.73;;;4.22;;
9716;SDS011;4897;43.570;27.832;2022-10-31T14:56:47;7.53;;;5.07;;
9716;SDS011;4897;43.570;27.832;2022-10-31T14:59:18;7.68;;;4.53;;
9716;SDS011;4897;43.570;27.832;2022-10-31T15:01:52;5.65;;;4.35;;
9716;SDS011;4897;43.570;27.832;2022-10-31T15:04:24;25.52;;;18.30;;
9716;SDS011;4897;43.570;27.832;2022-10-31T15:06:54;11.65;;;6.05;;
9716;SDS011;4897;43.570;27.832;2022-10-31T15:09:26;11.40;;;6.07;;
9716;SDS011;4897;43.570;27.832;2022-10-31T15:11:55;38.60;;;26.02;;
9716;SDS011;4897;43.570;27.832;2022-10-31T15:14:24;17.30;;;10.00;;
9716;SDS011;4897;43.570;27.832;2022-10-31T15:16:52;23.27;;;14.20;;
9716;SDS011;4897;43.570;27.832;2022-10-31T15:19:21;21.23;;;8.90;;
9716;SDS011;4897;43.570;27.832;2022-10-31T15:21:50;18.83;;;9.02;;
9716;SDS011;4897;43.570;27.832;2022-10-31T15:24:19;18.45;;;8.10;;